Ukiah, Oregon
Current Conditions -  °F | °C
As of 6:56 PM on Friday 28 Nov 2014 (Local Time) from KMEH Reporting Station
Broken Clouds Broken Clouds  
Wind Chill: 46°   Ceiling: 11000
Heat Index: 48°   Visibility: 10mi
Dew Point: 35°   Wind: 5mph
Humidity: 61%   Direction: NA
Pressure: 29.47"   Gusts: NA
Location:  45.13°N, 118.93°W
Report Text: KMEH 290256Z AUTO VRB04KT 10SM BKN110 09/02 A2947 RMK AO2 SLP974 T00890017 56012
Loading
Personal Weather Stations






























Interactive Weather Map New forecast layout! Learn more

10-Day Weather Forecast

Advertisements
Track Severe Weather on mobile